sensor_id;sensor_type;location;lat;lon;timestamp;pressure;altitude;pressure_sealevel;temperature;humidity
73896;BME280;62229;50.770;6.080;2022-09-09T00:02:12;98842.88;;;13.67;81.46
73896;BME280;62229;50.770;6.080;2022-09-09T00:12:24;98826.13;;;13.64;82.50
73896;BME280;62229;50.770;6.080;2022-09-09T00:22:30;98832.41;;;13.64;79.10
73896;BME280;62229;50.770;6.080;2022-09-09T00:32:33;98822.97;;;13.73;82.52
73896;BME280;62229;50.770;6.080;2022-09-09T00:42:40;98829.25;;;13.80;81.39
73896;BME280;62229;50.770;6.080;2022-09-09T00:52:48;98828.00;;;13.76;82.26
73896;BME280;62229;50.770;6.080;2022-09-09T01:03:10;98829.81;;;13.89;85.06
73896;BME280;62229;50.770;6.080;2022-09-09T01:13:22;98837.34;;;13.94;82.24
73896;BME280;62229;50.770;6.080;2022-09-09T01:23:37;98841.75;;;14.01;85.75
73896;BME280;62229;50.770;6.080;2022-09-09T01:33:44;98834.34;;;14.15;80.68
73896;BME280;62229;50.770;6.080;2022-09-09T01:43:45;98828.84;;;14.41;79.33
73896;BME280;62229;50.770;6.080;2022-09-09T01:53:49;98823.53;;;14.53;79.80
73896;BME280;62229;50.770;6.080;2022-09-09T02:03:52;98824.75;;;14.57;80.30
73896;BME280;62229;50.770;6.080;2022-09-09T02:14:00;98820.13;;;14.64;83.64
73896;BME280;62229;50.770;6.080;2022-09-09T02:24:05;98805.47;;;14.59;82.39
73896;BME280;62229;50.770;6.080;2022-09-09T02:34:12;98807.53;;;14.63;81.54
73896;BME280;62229;50.770;6.080;2022-09-09T02:44:17;98811.06;;;14.70;80.95
73896;BME280;62229;50.770;6.080;2022-09-09T02:54:26;98805.22;;;14.67;83.77
73896;BME280;62229;50.770;6.080;2022-09-09T03:04:28;98809.88;;;14.60;79.57
73896;BME280;62229;50.770;6.080;2022-09-09T03:14:32;98811.13;;;14.57;80.23
73896;BME280;62229;50.770;6.080;2022-09-09T03:24:34;98810.47;;;14.62;79.94
73896;BME280;62229;50.770;6.080;2022-09-09T03:34:37;98810.28;;;14.57;80.96
73896;BME280;62229;50.770;6.080;2022-09-09T03:44:40;98817.63;;;14.56;79.74
73896;BME280;62229;50.770;6.080;2022-09-09T03:54:43;98820.75;;;14.66;80.67
73896;BME280;62229;50.770;6.080;2022-09-09T04:04:45;98818.41;;;14.70;80.46
73896;BME280;62229;50.770;6.080;2022-09-09T04:14:48;98800.53;;;14.74;79.90
73896;BME280;62229;50.770;6.080;2022-09-09T04:24:49;98793.88;;;14.70;79.65
73896;BME280;62229;50.770;6.080;2022-09-09T04:34:52;98806.28;;;14.66;81.91
73896;BME280;62229;50.770;6.080;2022-09-09T04:44:53;98806.72;;;14.63;80.18
73896;BME280;62229;50.770;6.080;2022-09-09T04:54:57;98816.78;;;14.62;80.47
73896;BME280;62229;50.770;6.080;2022-09-09T05:04:58;98818.44;;;14.63;81.65
73896;BME280;62229;50.770;6.080;2022-09-09T05:15:01;98819.25;;;14.70;79.95
73896;BME280;62229;50.770;6.080;2022-09-09T05:25:04;98812.88;;;14.76;80.04
73896;BME280;62229;50.770;6.080;2022-09-09T05:35:07;98815.94;;;14.93;80.07
73896;BME280;62229;50.770;6.080;2022-09-09T05:45:09;98819.59;;;15.05;78.74
73896;BME280;62229;50.770;6.080;2022-09-09T05:55:12;98810.00;;;15.28;78.03
73896;BME280;62229;50.770;6.080;2022-09-09T06:05:13;98793.88;;;15.44;77.28
73896;BME280;62229;50.770;6.080;2022-09-09T06:15:16;98808.59;;;15.68;76.27
73896;BME280;62229;50.770;6.080;2022-09-09T06:25:18;98809.34;;;15.94;75.73
73896;BME280;62229;50.770;6.080;2022-09-09T06:35:21;98806.72;;;19.04;66.75
73896;BME280;62229;50.770;6.080;2022-09-09T06:45:22;98787.91;;;24.35;62.62
73896;BME280;62229;50.770;6.080;2022-09-09T06:55:25;98797.31;;;19.50;69.54
73896;BME280;62229;50.770;6.080;2022-09-09T07:05:27;98806.19;;;18.21;71.39
73896;BME280;62229;50.770;6.080;2022-09-09T07:15:29;98816.91;;;18.23;67.37
73896;BME280;62229;50.770;6.080;2022-09-09T07:25:33;98823.63;;;19.29;65.96
73896;BME280;62229;50.770;6.080;2022-09-09T07:35:36;98821.31;;;18.36;66.47
73896;BME280;62229;50.770;6.080;2022-09-09T07:45:38;98815.22;;;21.54;57.32
73896;BME280;62229;50.770;6.080;2022-09-09T07:55:42;98827.41;;;20.77;59.81
73896;BME280;62229;50.770;6.080;2022-09-09T08:05:43;98828.66;;;20.92;59.30
73896;BME280;62229;50.770;6.080;2022-09-09T08:15:46;98832.09;;;22.57;52.55
73896;BME280;62229;50.770;6.080;2022-09-09T08:25:49;98844.81;;;21.37;59.40
73896;BME280;62229;50.770;6.080;2022-09-09T08:35:52;98857.66;;;21.95;52.98
73896;BME280;62229;50.770;6.080;2022-09-09T08:45:57;98832.34;;;26.68;42.63
73896;BME280;62229;50.770;6.080;2022-09-09T08:56:09;98842.06;;;28.29;35.31
73896;BME280;62229;50.770;6.080;2022-09-09T09:06:23;98843.81;;;32.10;29.04
73896;BME280;62229;50.770;6.080;2022-09-09T09:16:32;98845.19;;;36.95;23.41
73896;BME280;62229;50.770;6.080;2022-09-09T09:26:37;98820.28;;;37.55;30.79
73896;BME280;62229;50.770;6.080;2022-09-09T09:36:42;98824.69;;;34.38;24.30
73896;BME280;62229;50.770;6.080;2022-09-09T09:46:46;98827.22;;;29.47;37.81
73896;BME280;62229;50.770;6.080;2022-09-09T09:56:49;98851.34;;;23.09;45.53
73896;BME280;62229;50.770;6.080;2022-09-09T10:06:50;98857.13;;;21.93;46.46
73896;BME280;62229;50.770;6.080;2022-09-09T10:17:03;98881.59;;;19.16;57.71
73896;BME280;62229;50.770;6.080;2022-09-09T10:27:14;98859.97;;;21.34;50.02
73896;BME280;62229;50.770;6.080;2022-09-09T10:37:29;98865.25;;;20.27;54.07
73896;BME280;62229;50.770;6.080;2022-09-09T10:47:48;98882.03;;;18.04;66.03
73896;BME280;62229;50.770;6.080;2022-09-09T10:57:58;98878.31;;;17.99;63.83
73896;BME280;62229;50.770;6.080;2022-09-09T11:08:01;98864.53;;;19.76;59.85
73896;BME280;62229;50.770;6.080;2022-09-09T11:18:08;98874.69;;;19.13;58.07
73896;BME280;62229;50.770;6.080;2022-09-09T11:28:32;98860.38;;;22.84;50.63
73896;BME280;62229;50.770;6.080;2022-09-09T11:38:44;98877.50;;;21.01;55.84
73896;BME280;62229;50.770;6.080;2022-09-09T11:48:58;98884.00;;;21.44;54.51
73896;BME280;62229;50.770;6.080;2022-09-09T11:59:03;98872.44;;;20.44;57.04
73896;BME280;62229;50.770;6.080;2022-09-09T12:09:08;98855.53;;;22.02;52.04
73896;BME280;62229;50.770;6.080;2022-09-09T12:19:19;98844.63;;;33.46;30.21
73896;BME280;62229;50.770;6.080;2022-09-09T12:29:27;98856.91;;;24.85;44.36
73896;BME280;62229;50.770;6.080;2022-09-09T12:39:37;98857.13;;;21.56;54.40
73896;BME280;62229;50.770;6.080;2022-09-09T12:49:42;98836.13;;;23.02;49.42
73896;BME280;62229;50.770;6.080;2022-09-09T12:59:45;98845.75;;;24.46;44.92
73896;BME280;62229;50.770;6.080;2022-09-09T13:09:49;98828.41;;;24.00;46.45
73896;BME280;62229;50.770;6.080;2022-09-09T13:19:52;98815.16;;;23.87;45.75
73896;BME280;62229;50.770;6.080;2022-09-09T13:29:56;98810.63;;;20.35;54.42
73896;BME280;62229;50.770;6.080;2022-09-09T13:39:59;98837.50;;;18.37;65.94
73896;BME280;62229;50.770;6.080;2022-09-09T13:50:15;98810.59;;;25.01;48.72
73896;BME280;62229;50.770;6.080;2022-09-09T14:00:23;98814.88;;;23.33;51.14
73896;BME280;62229;50.770;6.080;2022-09-09T14:10:25;98812.97;;;25.52;44.84
73896;BME280;62229;50.770;6.080;2022-09-09T14:20:28;98833.56;;;20.63;57.83
73896;BME280;62229;50.770;6.080;2022-09-09T14:30:30;98843.53;;;19.86;60.26
73896;BME280;62229;50.770;6.080;2022-09-09T14:40:34;98846.09;;;18.29;67.51
73896;BME280;62229;50.770;6.080;2022-09-09T14:50:35;98840.94;;;19.46;60.50
73896;BME280;62229;50.770;6.080;2022-09-09T15:00:41;98825.41;;;20.29;59.14
73896;BME280;62229;50.770;6.080;2022-09-09T15:10:43;98827.41;;;20.12;59.03
73896;BME280;62229;50.770;6.080;2022-09-09T15:20:47;98836.53;;;19.45;62.83
73896;BME280;62229;50.770;6.080;2022-09-09T15:30:49;98838.44;;;18.83;64.05
73896;BME280;62229;50.770;6.080;2022-09-09T15:40:54;98827.66;;;19.94;62.70
73896;BME280;62229;50.770;6.080;2022-09-09T15:51:01;98842.44;;;19.37;65.04
73896;BME280;62229;50.770;6.080;2022-09-09T16:01:06;98836.78;;;18.42;66.83
73896;BME280;62229;50.770;6.080;2022-09-09T16:11:10;98842.38;;;17.83;66.47
73896;BME280;62229;50.770;6.080;2022-09-09T16:21:15;98839.69;;;17.30;68.84
73896;BME280;62229;50.770;6.080;2022-09-09T16:31:19;98839.00;;;16.93;69.50
73896;BME280;62229;50.770;6.080;2022-09-09T16:41:23;98861.63;;;16.52;71.50
73896;BME280;62229;50.770;6.080;2022-09-09T16:51:27;98856.03;;;16.10;73.97
73896;BME280;62229;50.770;6.080;2022-09-09T17:01:32;98875.06;;;15.80;75.51
73896;BME280;62229;50.770;6.080;2022-09-09T17:11:35;98893.84;;;15.70;74.35
73896;BME280;62229;50.770;6.080;2022-09-09T17:21:38;98910.63;;;15.74;75.90
73896;BME280;62229;50.770;6.080;2022-09-09T17:31:40;98939.16;;;15.78;75.30
73896;BME280;62229;50.770;6.080;2022-09-09T17:41:43;98929.16;;;15.65;79.31
73896;BME280;62229;50.770;6.080;2022-09-09T17:51:46;98948.34;;;15.52;79.60
73896;BME280;62229;50.770;6.080;2022-09-09T18:01:49;98944.06;;;15.31;79.26
73896;BME280;62229;50.770;6.080;2022-09-09T18:11:52;98942.50;;;15.17;79.62
73896;BME280;62229;50.770;6.080;2022-09-09T18:21:57;98942.09;;;15.13;81.81
73896;BME280;62229;50.770;6.080;2022-09-09T18:31:58;98944.91;;;15.00;80.92
73896;BME280;62229;50.770;6.080;2022-09-09T18:42:01;98964.84;;;15.01;82.96
73896;BME280;62229;50.770;6.080;2022-09-09T18:52:04;98966.13;;;14.98;82.12
73896;BME280;62229;50.770;6.080;2022-09-09T19:02:08;98971.78;;;14.97;84.97
73896;BME280;62229;50.770;6.080;2022-09-09T19:12:11;98982.47;;;14.98;81.50
73896;BME280;62229;50.770;6.080;2022-09-09T19:22:14;98978.31;;;14.89;81.84
73896;BME280;62229;50.770;6.080;2022-09-09T19:32:15;98996.38;;;14.83;84.47
73896;BME280;62229;50.770;6.080;2022-09-09T19:42:19;99007.50;;;14.75;82.06
73896;BME280;62229;50.770;6.080;2022-09-09T19:52:20;99017.38;;;14.76;81.86
73896;BME280;62229;50.770;6.080;2022-09-09T20:02:23;99024.34;;;14.66;84.38
73896;BME280;62229;50.770;6.080;2022-09-09T20:12:25;99032.47;;;14.79;83.31
73896;BME280;62229;50.770;6.080;2022-09-09T20:22:28;99034.97;;;14.80;84.54
73896;BME280;62229;50.770;6.080;2022-09-09T20:32:30;99039.22;;;14.70;83.01
73896;BME280;62229;50.770;6.080;2022-09-09T20:42:33;99038.63;;;14.55;83.23
73896;BME280;62229;50.770;6.080;2022-09-09T20:52:34;99031.28;;;14.48;82.72
73896;BME280;62229;50.770;6.080;2022-09-09T21:02:37;99027.50;;;14.49;82.59
73896;BME280;62229;50.770;6.080;2022-09-09T21:12:39;99034.19;;;14.67;82.16
73896;BME280;62229;50.770;6.080;2022-09-09T21:22:43;99044.69;;;14.70;82.64
73896;BME280;62229;50.770;6.080;2022-09-09T21:32:45;99043.16;;;14.74;81.69
73896;BME280;62229;50.770;6.080;2022-09-09T21:42:48;99048.03;;;14.72;83.04
73896;BME280;62229;50.770;6.080;2022-09-09T21:52:50;99055.59;;;14.70;81.03
73896;BME280;62229;50.770;6.080;2022-09-09T22:02:52;99053.91;;;14.62;81.62
73896;BME280;62229;50.770;6.080;2022-09-09T22:12:54;99054.75;;;14.49;81.65
73896;BME280;62229;50.770;6.080;2022-09-09T22:22:57;99040.31;;;14.29;82.59
73896;BME280;62229;50.770;6.080;2022-09-09T22:32:59;99041.34;;;14.15;81.96
73896;BME280;62229;50.770;6.080;2022-09-09T22:43:03;99038.41;;;14.16;82.36
73896;BME280;62229;50.770;6.080;2022-09-09T22:53:05;99032.97;;;14.16;82.72
73896;BME280;62229;50.770;6.080;2022-09-09T23:03:08;99047.66;;;14.09;82.88
73896;BME280;62229;50.770;6.080;2022-09-09T23:13:10;99048.47;;;14.16;82.36
73896;BME280;62229;50.770;6.080;2022-09-09T23:23:12;99042.19;;;14.22;83.88
73896;BME280;62229;50.770;6.080;2022-09-09T23:33:14;99049.09;;;14.25;82.37
73896;BME280;62229;50.770;6.080;2022-09-09T23:43:17;99054.97;;;14.28;82.92
73896;BME280;62229;50.770;6.080;2022-09-09T23:53:21;99049.31;;;14.23;84.20
